sensor_id;sensor_type;location;lat;lon;timestamp;temperature;humidity
79571;DHT22;69034;49.444;7.758;2023-06-26T00:01:59;24.70;41.30
79571;DHT22;69034;49.444;7.758;2023-06-26T00:05:59;24.60;41.30
79571;DHT22;69034;49.444;7.758;2023-06-26T00:10:02;24.50;41.50
79571;DHT22;69034;49.444;7.758;2023-06-26T00:14:03;24.40;41.70
79571;DHT22;69034;49.444;7.758;2023-06-26T00:18:04;24.30;41.90
79571;DHT22;69034;49.444;7.758;2023-06-26T00:22:04;24.20;42.00
79571;DHT22;69034;49.444;7.758;2023-06-26T00:26:06;24.20;42.20
79571;DHT22;69034;49.444;7.758;2023-06-26T00:30:08;24.20;42.50
79571;DHT22;69034;49.444;7.758;2023-06-26T00:34:14;24.20;42.50
79571;DHT22;69034;49.444;7.758;2023-06-26T00:38:15;24.10;42.70
79571;DHT22;69034;49.444;7.758;2023-06-26T00:42:17;24.00;42.40
79571;DHT22;69034;49.444;7.758;2023-06-26T00:46:18;24.00;42.30
79571;DHT22;69034;49.444;7.758;2023-06-26T00:50:19;24.00;42.40
79571;DHT22;69034;49.444;7.758;2023-06-26T00:54:23;23.90;42.50
79571;DHT22;69034;49.444;7.758;2023-06-26T00:58:24;23.80;42.60
79571;DHT22;69034;49.444;7.758;2023-06-26T01:02:25;23.80;42.60
79571;DHT22;69034;49.444;7.758;2023-06-26T01:06:32;23.70;42.70
79571;DHT22;69034;49.444;7.758;2023-06-26T01:10:37;23.60;42.80
79571;DHT22;69034;49.444;7.758;2023-06-26T01:14:41;23.50;42.90
79571;DHT22;69034;49.444;7.758;2023-06-26T01:18:43;23.40;42.90
79571;DHT22;69034;49.444;7.758;2023-06-26T01:26:53;23.30;43.20
79571;DHT22;69034;49.444;7.758;2023-06-26T01:30:54;23.20;43.30
79571;DHT22;69034;49.444;7.758;2023-06-26T01:34:57;23.10;43.50
79571;DHT22;69034;49.444;7.758;2023-06-26T01:38:58;23.00;43.50
79571;DHT22;69034;49.444;7.758;2023-06-26T01:43:02;23.00;43.60
79571;DHT22;69034;49.444;7.758;2023-06-26T01:47:03;23.00;43.70
79571;DHT22;69034;49.444;7.758;2023-06-26T01:51:06;22.90;43.80
79571;DHT22;69034;49.444;7.758;2023-06-26T01:55:28;22.90;44.00
79571;DHT22;69034;49.444;7.758;2023-06-26T01:59:34;22.80;44.20
79571;DHT22;69034;49.444;7.758;2023-06-26T02:03:35;22.60;44.20
79571;DHT22;69034;49.444;7.758;2023-06-26T02:07:36;22.50;44.40
79571;DHT22;69034;49.444;7.758;2023-06-26T02:11:43;22.50;44.50
79571;DHT22;69034;49.444;7.758;2023-06-26T02:15:44;22.30;44.60
79571;DHT22;69034;49.444;7.758;2023-06-26T02:19:44;22.20;44.80
79571;DHT22;69034;49.444;7.758;2023-06-26T02:23:48;22.10;45.00
79571;DHT22;69034;49.444;7.758;2023-06-26T02:27:48;22.00;45.10
79571;DHT22;69034;49.444;7.758;2023-06-26T02:31:49;22.00;45.20
79571;DHT22;69034;49.444;7.758;2023-06-26T02:35:50;21.90;45.30
79571;DHT22;69034;49.444;7.758;2023-06-26T02:39:50;21.80;45.60
79571;DHT22;69034;49.444;7.758;2023-06-26T02:43:51;21.70;45.90
79571;DHT22;69034;49.444;7.758;2023-06-26T02:47:52;21.60;46.30
79571;DHT22;69034;49.444;7.758;2023-06-26T02:51:52;21.40;46.60
79571;DHT22;69034;49.444;7.758;2023-06-26T02:55:53;21.40;46.60
79571;DHT22;69034;49.444;7.758;2023-06-26T02:59:53;21.30;46.80
79571;DHT22;69034;49.444;7.758;2023-06-26T03:03:55;21.20;47.00
79571;DHT22;69034;49.444;7.758;2023-06-26T03:07:57;21.10;47.10
79571;DHT22;69034;49.444;7.758;2023-06-26T03:11:58;21.10;47.20
79571;DHT22;69034;49.444;7.758;2023-06-26T03:15:58;21.10;47.30
79571;DHT22;69034;49.444;7.758;2023-06-26T03:19:59;21.00;47.60
79571;DHT22;69034;49.444;7.758;2023-06-26T03:24:00;20.80;47.90
79571;DHT22;69034;49.444;7.758;2023-06-26T03:28:00;20.80;48.00
79571;DHT22;69034;49.444;7.758;2023-06-26T03:32:01;20.80;48.10
79571;DHT22;69034;49.444;7.758;2023-06-26T03:36:01;20.70;48.10
79571;DHT22;69034;49.444;7.758;2023-06-26T03:40:04;20.70;48.20
79571;DHT22;69034;49.444;7.758;2023-06-26T03:44:06;20.70;48.30
79571;DHT22;69034;49.444;7.758;2023-06-26T03:48:07;20.70;48.30
79571;DHT22;69034;49.444;7.758;2023-06-26T03:52:08;20.70;48.50
79571;DHT22;69034;49.444;7.758;2023-06-26T03:56:09;20.70;48.70
79571;DHT22;69034;49.444;7.758;2023-06-26T04:00:10;20.80;48.70
79571;DHT22;69034;49.444;7.758;2023-06-26T04:04:13;21.00;48.50
79571;DHT22;69034;49.444;7.758;2023-06-26T04:08:14;21.30;48.20
79571;DHT22;69034;49.444;7.758;2023-06-26T04:12:14;21.40;48.20
79571;DHT22;69034;49.444;7.758;2023-06-26T04:16:15;21.40;48.20
79571;DHT22;69034;49.444;7.758;2023-06-26T04:20:16;21.50;48.30
79571;DHT22;69034;49.444;7.758;2023-06-26T04:24:18;21.50;48.40
79571;DHT22;69034;49.444;7.758;2023-06-26T04:28:18;21.50;48.50
79571;DHT22;69034;49.444;7.758;2023-06-26T04:32:19;21.50;48.50
79571;DHT22;69034;49.444;7.758;2023-06-26T04:36:20;21.50;48.40
79571;DHT22;69034;49.444;7.758;2023-06-26T04:40:21;21.60;48.40
79571;DHT22;69034;49.444;7.758;2023-06-26T04:44:22;21.70;48.30
79571;DHT22;69034;49.444;7.758;2023-06-26T04:48:22;21.70;48.20
79571;DHT22;69034;49.444;7.758;2023-06-26T04:52:23;21.90;48.00
79571;DHT22;69034;49.444;7.758;2023-06-26T04:56:24;22.00;47.70
79571;DHT22;69034;49.444;7.758;2023-06-26T05:00:26;22.10;47.60
79571;DHT22;69034;49.444;7.758;2023-06-26T05:04:27;22.20;47.30
79571;DHT22;69034;49.444;7.758;2023-06-26T05:08:28;22.30;47.50
79571;DHT22;69034;49.444;7.758;2023-06-26T05:12:31;22.60;47.30
79571;DHT22;69034;49.444;7.758;2023-06-26T05:16:31;22.70;47.00
79571;DHT22;69034;49.444;7.758;2023-06-26T05:20:32;22.60;47.10
79571;DHT22;69034;49.444;7.758;2023-06-26T05:24:35;22.40;47.70
79571;DHT22;69034;49.444;7.758;2023-06-26T05:28:36;22.20;48.20
79571;DHT22;69034;49.444;7.758;2023-06-26T05:32:38;22.20;48.20
79571;DHT22;69034;49.444;7.758;2023-06-26T05:36:42;22.20;48.50
79571;DHT22;69034;49.444;7.758;2023-06-26T05:40:44;22.00;49.00
79571;DHT22;69034;49.444;7.758;2023-06-26T05:44:45;22.30;48.80
79571;DHT22;69034;49.444;7.758;2023-06-26T05:48:45;22.60;48.40
79571;DHT22;69034;49.444;7.758;2023-06-26T05:52:48;23.00;47.90
79571;DHT22;69034;49.444;7.758;2023-06-26T05:56:50;23.30;47.30
79571;DHT22;69034;49.444;7.758;2023-06-26T06:00:53;23.70;47.00
79571;DHT22;69034;49.444;7.758;2023-06-26T06:04:55;24.10;46.50
79571;DHT22;69034;49.444;7.758;2023-06-26T06:08:55;24.20;46.50
79571;DHT22;69034;49.444;7.758;2023-06-26T06:12:56;24.50;46.20
79571;DHT22;69034;49.444;7.758;2023-06-26T06:16:58;24.90;45.70
79571;DHT22;69034;49.444;7.758;2023-06-26T06:21:00;25.20;45.20
79571;DHT22;69034;49.444;7.758;2023-06-26T06:25:00;25.60;44.80
79571;DHT22;69034;49.444;7.758;2023-06-26T06:29:01;26.00;44.30
79571;DHT22;69034;49.444;7.758;2023-06-26T06:33:02;26.20;44.20
79571;DHT22;69034;49.444;7.758;2023-06-26T06:37:03;26.60;43.80
79571;DHT22;69034;49.444;7.758;2023-06-26T06:41:04;27.00;43.40
79571;DHT22;69034;49.444;7.758;2023-06-26T06:45:05;27.40;42.90
79571;DHT22;69034;49.444;7.758;2023-06-26T06:49:07;27.80;42.30
79571;DHT22;69034;49.444;7.758;2023-06-26T06:53:08;28.10;42.00
79571;DHT22;69034;49.444;7.758;2023-06-26T06:57:09;28.30;41.60
79571;DHT22;69034;49.444;7.758;2023-06-26T07:01:09;28.70;41.10
79571;DHT22;69034;49.444;7.758;2023-06-26T07:05:10;29.00;40.60
79571;DHT22;69034;49.444;7.758;2023-06-26T07:09:11;29.40;40.00
79571;DHT22;69034;49.444;7.758;2023-06-26T07:13:12;29.70;39.60
79571;DHT22;69034;49.444;7.758;2023-06-26T07:17:13;29.80;39.30
79571;DHT22;69034;49.444;7.758;2023-06-26T07:21:16;30.00;38.60
79571;DHT22;69034;49.444;7.758;2023-06-26T07:25:16;30.60;37.90
79571;DHT22;69034;49.444;7.758;2023-06-26T07:29:17;31.10;37.30
79571;DHT22;69034;49.444;7.758;2023-06-26T07:33:19;31.60;36.50
79571;DHT22;69034;49.444;7.758;2023-06-26T07:37:21;31.90;36.10
79571;DHT22;69034;49.444;7.758;2023-06-26T07:41:21;32.00;35.90
79571;DHT22;69034;49.444;7.758;2023-06-26T07:45:22;32.00;35.70
79571;DHT22;69034;49.444;7.758;2023-06-26T07:49:23;32.10;35.50
79571;DHT22;69034;49.444;7.758;2023-06-26T07:53:23;32.50;35.10
79571;DHT22;69034;49.444;7.758;2023-06-26T07:57:24;32.60;35.30
79571;DHT22;69034;49.444;7.758;2023-06-26T08:01:25;32.60;35.10
79571;DHT22;69034;49.444;7.758;2023-06-26T08:05:26;32.80;34.90
79571;DHT22;69034;49.444;7.758;2023-06-26T08:09:28;33.00;34.70
79571;DHT22;69034;49.444;7.758;2023-06-26T08:13:30;33.20;34.50
79571;DHT22;69034;49.444;7.758;2023-06-26T08:17:31;33.80;34.00
79571;DHT22;69034;49.444;7.758;2023-06-26T08:21:33;34.40;33.20
79571;DHT22;69034;49.444;7.758;2023-06-26T08:25:35;34.70;32.70
79571;DHT22;69034;49.444;7.758;2023-06-26T08:29:35;34.50;32.40
79571;DHT22;69034;49.444;7.758;2023-06-26T08:33:36;34.10;32.50
79571;DHT22;69034;49.444;7.758;2023-06-26T08:37:37;34.10;32.50
79571;DHT22;69034;49.444;7.758;2023-06-26T08:41:38;34.80;31.90
79571;DHT22;69034;49.444;7.758;2023-06-26T08:45:41;35.00;31.80
79571;DHT22;69034;49.444;7.758;2023-06-26T08:50:01;35.60;31.10
79571;DHT22;69034;49.444;7.758;2023-06-26T08:54:08;35.70;31.10
79571;DHT22;69034;49.444;7.758;2023-06-26T08:58:10;35.40;30.80
79571;DHT22;69034;49.444;7.758;2023-06-26T09:02:12;34.80;31.30
79571;DHT22;69034;49.444;7.758;2023-06-26T09:06:13;35.00;31.20
79571;DHT22;69034;49.444;7.758;2023-06-26T09:10:14;35.50;30.90
79571;DHT22;69034;49.444;7.758;2023-06-26T09:14:14;35.30;30.90
79571;DHT22;69034;49.444;7.758;2023-06-26T09:18:21;35.10;30.90
79571;DHT22;69034;49.444;7.758;2023-06-26T09:22:23;34.60;31.20
79571;DHT22;69034;49.444;7.758;2023-06-26T09:26:24;34.60;31.20
79571;DHT22;69034;49.444;7.758;2023-06-26T09:30:31;35.00;31.00
79571;DHT22;69034;49.444;7.758;2023-06-26T09:34:34;35.60;30.70
79571;DHT22;69034;49.444;7.758;2023-06-26T09:38:35;36.00;30.00
79571;DHT22;69034;49.444;7.758;2023-06-26T09:42:36;36.40;29.90
79571;DHT22;69034;49.444;7.758;2023-06-26T09:46:38;36.80;29.40
79571;DHT22;69034;49.444;7.758;2023-06-26T09:50:41;37.10;28.70
79571;DHT22;69034;49.444;7.758;2023-06-26T09:54:46;37.30;28.00
79571;DHT22;69034;49.444;7.758;2023-06-26T09:58:47;37.60;27.80
79571;DHT22;69034;49.444;7.758;2023-06-26T10:02:48;38.20;27.10
79571;DHT22;69034;49.444;7.758;2023-06-26T10:06:49;38.50;26.80
79571;DHT22;69034;49.444;7.758;2023-06-26T10:10:53;39.00;26.60
79571;DHT22;69034;49.444;7.758;2023-06-26T10:14:57;39.50;25.60
79571;DHT22;69034;49.444;7.758;2023-06-26T10:19:05;39.80;25.20
79571;DHT22;69034;49.444;7.758;2023-06-26T10:23:07;40.00;24.60
79571;DHT22;69034;49.444;7.758;2023-06-26T10:27:20;40.30;24.10
79571;DHT22;69034;49.444;7.758;2023-06-26T10:31:23;40.50;19.30
79571;DHT22;69034;49.444;7.758;2023-06-26T10:35:26;40.90;19.10
79571;DHT22;69034;49.444;7.758;2023-06-26T10:39:50;41.50;18.60
79571;DHT22;69034;49.444;7.758;2023-06-26T10:44:20;42.50;18.30
79571;DHT22;69034;49.444;7.758;2023-06-26T10:48:21;43.80;17.80
79571;DHT22;69034;49.444;7.758;2023-06-26T10:52:26;44.10;17.10
79571;DHT22;69034;49.444;7.758;2023-06-26T10:56:46;44.20;16.50
79571;DHT22;69034;49.444;7.758;2023-06-26T11:00:50;44.20;16.40
79571;DHT22;69034;49.444;7.758;2023-06-26T11:04:51;44.70;16.10
79571;DHT22;69034;49.444;7.758;2023-06-26T11:09:01;44.40;15.70
79571;DHT22;69034;49.444;7.758;2023-06-26T11:13:06;44.10;15.60
79571;DHT22;69034;49.444;7.758;2023-06-26T11:17:07;44.30;15.50
79571;DHT22;69034;49.444;7.758;2023-06-26T11:21:09;44.30;15.70
79571;DHT22;69034;49.444;7.758;2023-06-26T11:25:11;44.60;15.10
79571;DHT22;69034;49.444;7.758;2023-06-26T11:29:13;44.90;15.40
79571;DHT22;69034;49.444;7.758;2023-06-26T11:33:14;45.30;15.30
79571;DHT22;69034;49.444;7.758;2023-06-26T11:37:19;45.20;15.10
79571;DHT22;69034;49.444;7.758;2023-06-26T11:41:20;45.60;14.90
79571;DHT22;69034;49.444;7.758;2023-06-26T11:45:24;45.40;14.50
79571;DHT22;69034;49.444;7.758;2023-06-26T11:49:25;45.70;14.10
79571;DHT22;69034;49.444;7.758;2023-06-26T11:53:29;45.90;14.10
79571;DHT22;69034;49.444;7.758;2023-06-26T11:57:30;46.50;13.80
79571;DHT22;69034;49.444;7.758;2023-06-26T12:01:41;46.30;13.80
79571;DHT22;69034;49.444;7.758;2023-06-26T12:05:42;46.50;13.70
79571;DHT22;69034;49.444;7.758;2023-06-26T12:09:47;46.90;13.40
79571;DHT22;69034;49.444;7.758;2023-06-26T12:13:50;46.80;13.20
79571;DHT22;69034;49.444;7.758;2023-06-26T12:17:53;47.20;13.30
79571;DHT22;69034;49.444;7.758;2023-06-26T12:21:53;47.70;13.10
79571;DHT22;69034;49.444;7.758;2023-06-26T12:25:56;47.70;13.10
79571;DHT22;69034;49.444;7.758;2023-06-26T12:29:57;47.30;13.40
79571;DHT22;69034;49.444;7.758;2023-06-26T12:33:57;47.00;13.20
79571;DHT22;69034;49.444;7.758;2023-06-26T12:37:58;46.60;13.60
79571;DHT22;69034;49.444;7.758;2023-06-26T12:42:01;47.10;13.30
79571;DHT22;69034;49.444;7.758;2023-06-26T12:46:01;46.90;13.20
79571;DHT22;69034;49.444;7.758;2023-06-26T12:50:05;47.50;12.70
79571;DHT22;69034;49.444;7.758;2023-06-26T12:54:06;46.80;12.70
79571;DHT22;69034;49.444;7.758;2023-06-26T12:58:06;47.10;12.50
79571;DHT22;69034;49.444;7.758;2023-06-26T13:02:08;47.60;12.30
79571;DHT22;69034;49.444;7.758;2023-06-26T13:06:09;48.30;12.20
79571;DHT22;69034;49.444;7.758;2023-06-26T13:10:10;48.30;11.60
79571;DHT22;69034;49.444;7.758;2023-06-26T13:14:11;48.00;11.30
79571;DHT22;69034;49.444;7.758;2023-06-26T13:18:13;47.60;10.70
79571;DHT22;69034;49.444;7.758;2023-06-26T13:22:16;46.90;11.00
79571;DHT22;69034;49.444;7.758;2023-06-26T13:26:18;46.60;10.50
79571;DHT22;69034;49.444;7.758;2023-06-26T13:30:19;46.50;10.40
79571;DHT22;69034;49.444;7.758;2023-06-26T13:34:21;46.90;10.50
79571;DHT22;69034;49.444;7.758;2023-06-26T13:38:26;47.60;10.20
79571;DHT22;69034;49.444;7.758;2023-06-26T13:42:27;47.80;10.10
79571;DHT22;69034;49.444;7.758;2023-06-26T13:46:27;47.90;9.90
79571;DHT22;69034;49.444;7.758;2023-06-26T13:50:29;47.60;9.20
79571;DHT22;69034;49.444;7.758;2023-06-26T13:54:31;46.60;9.50
79571;DHT22;69034;49.444;7.758;2023-06-26T13:58:34;45.90;9.40
79571;DHT22;69034;49.444;7.758;2023-06-26T14:02:36;44.50;9.60
79571;DHT22;69034;49.444;7.758;2023-06-26T14:06:38;43.10;9.80
79571;DHT22;69034;49.444;7.758;2023-06-26T14:10:39;42.30;10.20
79571;DHT22;69034;49.444;7.758;2023-06-26T14:14:40;41.30;10.50
79571;DHT22;69034;49.444;7.758;2023-06-26T14:18:41;41.90;10.70
79571;DHT22;69034;49.444;7.758;2023-06-26T14:22:43;42.70;10.70
79571;DHT22;69034;49.444;7.758;2023-06-26T14:26:44;44.30;10.60
79571;DHT22;69034;49.444;7.758;2023-06-26T14:30:44;46.50;9.90
79571;DHT22;69034;49.444;7.758;2023-06-26T14:34:45;47.70;9.30
79571;DHT22;69034;49.444;7.758;2023-06-26T14:38:47;47.50;9.30
79571;DHT22;69034;49.444;7.758;2023-06-26T14:42:49;47.50;9.30
79571;DHT22;69034;49.444;7.758;2023-06-26T14:46:50;46.60;9.40
79571;DHT22;69034;49.444;7.758;2023-06-26T14:50:50;44.20;10.10
79571;DHT22;69034;49.444;7.758;2023-06-26T14:54:51;43.00;10.70
79571;DHT22;69034;49.444;7.758;2023-06-26T14:58:57;42.20;11.00
79571;DHT22;69034;49.444;7.758;2023-06-26T15:02:58;42.40;11.10
79571;DHT22;69034;49.444;7.758;2023-06-26T15:06:59;43.70;10.70
79571;DHT22;69034;49.444;7.758;2023-06-26T15:11:01;44.00;10.80
79571;DHT22;69034;49.444;7.758;2023-06-26T15:15:03;45.10;10.60
79571;DHT22;69034;49.444;7.758;2023-06-26T15:19:04;45.50;10.40
79571;DHT22;69034;49.444;7.758;2023-06-26T15:23:04;44.90;10.60
79571;DHT22;69034;49.444;7.758;2023-06-26T15:27:05;45.50;10.50
79571;DHT22;69034;49.444;7.758;2023-06-26T15:31:06;45.10;10.50
79571;DHT22;69034;49.444;7.758;2023-06-26T15:35:07;45.10;10.70
79571;DHT22;69034;49.444;7.758;2023-06-26T15:43:09;45.60;10.70
79571;DHT22;69034;49.444;7.758;2023-06-26T15:47:10;45.40;10.80
79571;DHT22;69034;49.444;7.758;2023-06-26T15:51:13;45.40;10.90
79571;DHT22;69034;49.444;7.758;2023-06-26T15:55:15;45.00;11.00
79571;DHT22;69034;49.444;7.758;2023-06-26T15:59:16;44.60;11.20
79571;DHT22;69034;49.444;7.758;2023-06-26T16:03:19;44.20;11.50
79571;DHT22;69034;49.444;7.758;2023-06-26T16:07:20;44.30;11.70
79571;DHT22;69034;49.444;7.758;2023-06-26T16:11:20;44.20;11.70
79571;DHT22;69034;49.444;7.758;2023-06-26T16:15:22;43.60;12.10
79571;DHT22;69034;49.444;7.758;2023-06-26T16:19:22;43.40;12.20
79571;DHT22;69034;49.444;7.758;2023-06-26T16:23:25;42.90;12.50
79571;DHT22;69034;49.444;7.758;2023-06-26T16:27:25;42.90;12.60
79571;DHT22;69034;49.444;7.758;2023-06-26T16:31:26;42.80;12.70
79571;DHT22;69034;49.444;7.758;2023-06-26T16:35:27;42.50;12.60
79571;DHT22;69034;49.444;7.758;2023-06-26T16:39:31;41.20;13.20
79571;DHT22;69034;49.444;7.758;2023-06-26T16:43:31;41.00;13.20
79571;DHT22;69034;49.444;7.758;2023-06-26T16:47:33;39.10;13.40
79571;DHT22;69034;49.444;7.758;2023-06-26T16:51:34;37.70;13.80
79571;DHT22;69034;49.444;7.758;2023-06-26T16:55:35;37.20;13.90
79571;DHT22;69034;49.444;7.758;2023-06-26T16:59:36;37.10;13.90
79571;DHT22;69034;49.444;7.758;2023-06-26T17:03:37;36.70;14.20
79571;DHT22;69034;49.444;7.758;2023-06-26T17:07:38;36.40;14.30
79571;DHT22;69034;49.444;7.758;2023-06-26T17:11:40;37.40;14.10
79571;DHT22;69034;49.444;7.758;2023-06-26T17:15:46;37.70;14.00
79571;DHT22;69034;49.444;7.758;2023-06-26T17:19:48;37.40;14.20
79571;DHT22;69034;49.444;7.758;2023-06-26T17:23:48;37.90;14.00
79571;DHT22;69034;49.444;7.758;2023-06-26T17:27:49;37.80;14.20
79571;DHT22;69034;49.444;7.758;2023-06-26T17:31:50;37.80;14.40
79571;DHT22;69034;49.444;7.758;2023-06-26T17:35:50;37.80;14.50
79571;DHT22;69034;49.444;7.758;2023-06-26T17:39:52;37.20;14.90
79571;DHT22;69034;49.444;7.758;2023-06-26T17:43:56;36.40;15.40
79571;DHT22;69034;49.444;7.758;2023-06-26T17:47:57;35.30;16.20
79571;DHT22;69034;49.444;7.758;2023-06-26T17:51:59;34.20;17.00
79571;DHT22;69034;49.444;7.758;2023-06-26T17:56:01;33.10;17.90
79571;DHT22;69034;49.444;7.758;2023-06-26T18:00:02;32.30;18.40
79571;DHT22;69034;49.444;7.758;2023-06-26T18:04:04;31.80;19.00
79571;DHT22;69034;49.444;7.758;2023-06-26T18:08:07;31.60;19.30
79571;DHT22;69034;49.444;7.758;2023-06-26T18:12:12;31.20;19.60
79571;DHT22;69034;49.444;7.758;2023-06-26T18:16:13;31.10;19.60
79571;DHT22;69034;49.444;7.758;2023-06-26T18:20:14;31.00;19.90
79571;DHT22;69034;49.444;7.758;2023-06-26T18:24:16;30.40;24.70
79571;DHT22;69034;49.444;7.758;2023-06-26T18:28:16;29.60;26.00
79571;DHT22;69034;49.444;7.758;2023-06-26T18:32:17;29.30;26.10
79571;DHT22;69034;49.444;7.758;2023-06-26T18:36:18;29.10;26.60
79571;DHT22;69034;49.444;7.758;2023-06-26T18:40:18;29.00;26.80
79571;DHT22;69034;49.444;7.758;2023-06-26T18:44:19;28.90;26.80
79571;DHT22;69034;49.444;7.758;2023-06-26T18:48:20;28.90;27.10
79571;DHT22;69034;49.444;7.758;2023-06-26T18:52:21;28.70;27.00
79571;DHT22;69034;49.444;7.758;2023-06-26T18:56:22;28.30;27.70
79571;DHT22;69034;49.444;7.758;2023-06-26T19:00:23;28.00;28.00
79571;DHT22;69034;49.444;7.758;2023-06-26T19:04:24;27.70;28.40
79571;DHT22;69034;49.444;7.758;2023-06-26T19:08:25;27.50;28.80
79571;DHT22;69034;49.444;7.758;2023-06-26T19:12:26;27.30;28.90
79571;DHT22;69034;49.444;7.758;2023-06-26T19:16:29;27.10;29.00
79571;DHT22;69034;49.444;7.758;2023-06-26T19:20:30;26.80;29.80
79571;DHT22;69034;49.444;7.758;2023-06-26T19:24:31;26.60;30.10
79571;DHT22;69034;49.444;7.758;2023-06-26T19:28:31;26.40;30.10
79571;DHT22;69034;49.444;7.758;2023-06-26T19:32:32;26.20;30.40
79571;DHT22;69034;49.444;7.758;2023-06-26T19:36:33;26.20;30.50
79571;DHT22;69034;49.444;7.758;2023-06-26T19:40:35;26.10;30.60
79571;DHT22;69034;49.444;7.758;2023-06-26T19:44:35;26.00;30.80
79571;DHT22;69034;49.444;7.758;2023-06-26T19:48:36;25.90;30.90
79571;DHT22;69034;49.444;7.758;2023-06-26T19:52:38;25.70;31.30
79571;DHT22;69034;49.444;7.758;2023-06-26T19:56:40;25.60;31.50
79571;DHT22;69034;49.444;7.758;2023-06-26T20:00:41;25.40;31.90
79571;DHT22;69034;49.444;7.758;2023-06-26T20:04:42;25.40;32.00
79571;DHT22;69034;49.444;7.758;2023-06-26T20:08:42;25.40;32.20
79571;DHT22;69034;49.444;7.758;2023-06-26T20:12:44;25.40;32.20
79571;DHT22;69034;49.444;7.758;2023-06-26T20:16:45;25.30;32.60
79571;DHT22;69034;49.444;7.758;2023-06-26T20:20:45;25.10;32.70
79571;DHT22;69034;49.444;7.758;2023-06-26T20:24:46;25.10;32.90
79571;DHT22;69034;49.444;7.758;2023-06-26T20:28:48;25.00;33.00
79571;DHT22;69034;49.444;7.758;2023-06-26T20:32:49;24.90;33.40
79571;DHT22;69034;49.444;7.758;2023-06-26T20:36:50;24.90;33.50
79571;DHT22;69034;49.444;7.758;2023-06-26T20:40:51;25.00;33.50
79571;DHT22;69034;49.444;7.758;2023-06-26T20:44:52;25.10;33.40
79571;DHT22;69034;49.444;7.758;2023-06-26T20:48:53;25.10;33.50
79571;DHT22;69034;49.444;7.758;2023-06-26T20:52:56;25.10;33.60
79571;DHT22;69034;49.444;7.758;2023-06-26T20:56:56;25.10;33.20
79571;DHT22;69034;49.444;7.758;2023-06-26T21:00:57;25.10;33.10
79571;DHT22;69034;49.444;7.758;2023-06-26T21:04:58;25.20;32.90
79571;DHT22;69034;49.444;7.758;2023-06-26T21:08:58;25.20;32.80
79571;DHT22;69034;49.444;7.758;2023-06-26T21:12:59;25.10;33.00
79571;DHT22;69034;49.444;7.758;2023-06-26T21:17:00;25.00;33.30
79571;DHT22;69034;49.444;7.758;2023-06-26T21:21:01;24.90;33.50
79571;DHT22;69034;49.444;7.758;2023-06-26T21:25:02;24.90;33.40
79571;DHT22;69034;49.444;7.758;2023-06-26T21:29:06;24.90;33.30
79571;DHT22;69034;49.444;7.758;2023-06-26T21:33:06;24.90;33.30
79571;DHT22;69034;49.444;7.758;2023-06-26T21:37:07;24.90;33.30
79571;DHT22;69034;49.444;7.758;2023-06-26T21:41:08;24.80;33.50
79571;DHT22;69034;49.444;7.758;2023-06-26T21:45:09;24.70;33.80
79571;DHT22;69034;49.444;7.758;2023-06-26T21:49:09;24.50;33.80
79571;DHT22;69034;49.444;7.758;2023-06-26T21:53:10;24.60;33.70
79571;DHT22;69034;49.444;7.758;2023-06-26T21:57:11;24.60;33.70
79571;DHT22;69034;49.444;7.758;2023-06-26T22:01:12;24.60;33.80
79571;DHT22;69034;49.444;7.758;2023-06-26T22:05:13;24.60;33.70
79571;DHT22;69034;49.444;7.758;2023-06-26T22:09:13;24.60;33.80
79571;DHT22;69034;49.444;7.758;2023-06-26T22:13:14;24.60;33.80
79571;DHT22;69034;49.444;7.758;2023-06-26T22:17:15;24.60;33.80
79571;DHT22;69034;49.444;7.758;2023-06-26T22:21:16;24.60;33.80
79571;DHT22;69034;49.444;7.758;2023-06-26T22:25:20;24.50;33.80
79571;DHT22;69034;49.444;7.758;2023-06-26T22:29:20;24.50;33.90
79571;DHT22;69034;49.444;7.758;2023-06-26T22:33:21;24.40;34.10
79571;DHT22;69034;49.444;7.758;2023-06-26T22:37:22;24.30;34.10
79571;DHT22;69034;49.444;7.758;2023-06-26T22:41:23;24.30;34.30
79571;DHT22;69034;49.444;7.758;2023-06-26T22:45:23;24.20;34.30
79571;DHT22;69034;49.444;7.758;2023-06-26T22:49:24;24.10;34.40
79571;DHT22;69034;49.444;7.758;2023-06-26T22:53:25;23.90;34.60
79571;DHT22;69034;49.444;7.758;2023-06-26T22:57:26;23.70;34.80
79571;DHT22;69034;49.444;7.758;2023-06-26T23:01:26;23.60;34.90
79571;DHT22;69034;49.444;7.758;2023-06-26T23:05:27;23.50;35.20
79571;DHT22;69034;49.444;7.758;2023-06-26T23:09:29;23.40;35.40
79571;DHT22;69034;49.444;7.758;2023-06-26T23:13:30;23.30;35.60
79571;DHT22;69034;49.444;7.758;2023-06-26T23:17:32;23.20;35.60
79571;DHT22;69034;49.444;7.758;2023-06-26T23:21:35;23.20;35.70
79571;DHT22;69034;49.444;7.758;2023-06-26T23:25:36;23.10;35.90
79571;DHT22;69034;49.444;7.758;2023-06-26T23:29:41;23.00;36.00
79571;DHT22;69034;49.444;7.758;2023-06-26T23:33:45;22.90;36.10
79571;DHT22;69034;49.444;7.758;2023-06-26T23:37:48;22.90;36.30
79571;DHT22;69034;49.444;7.758;2023-06-26T23:42:01;22.90;36.30
79571;DHT22;69034;49.444;7.758;2023-06-26T23:46:04;22.80;36.60
79571;DHT22;69034;49.444;7.758;2023-06-26T23:50:05;22.80;36.60
79571;DHT22;69034;49.444;7.758;2023-06-26T23:54:08;22.70;36.80
